Time;durP1;ratioP1;P1;durP2;ratioP2;P2;SDS_P1;SDS_P2;PMS_P1;PMS_P2;Temp;Humidity;BMP_temperature;BMP_pressure;BME280_temperature;BME280_humidity;BME280_pressure;Samples;Min_cycle;Max_cycle;Signal;HPM_P1;HPM_P2
2023/04/22 00:00:49;;;;;;;12.27;9.70;;;;;;;;;;5069917;28;20627;-62
2023/04/22 00:03:15;;;;;;;15.75;12.50;;;11.00;99.90;;;;;;5070097;28;20094;-62
2023/04/22 00:05:43;;;;;;;14.40;11.05;;;10.90;99.90;;;;;;5069800;28;20071;-61
2023/04/22 00:08:09;;;;;;;19.25;13.23;;;10.50;99.90;;;;;;5065548;28;20040;-61
2023/04/22 00:10:35;;;;;;;14.32;11.23;;;11.10;99.90;;;;;;5062399;28;20052;-61
2023/04/22 00:13:00;;;;;;;15.85;12.70;;;10.70;1.00;;;;;;5063235;28;20147;-61
2023/04/22 00:15:26;;;;;;;15.65;11.93;;;10.80;1.00;;;;;;5069888;28;20033;-61
2023/04/22 00:17:52;;;;;;;17.30;12.98;;;;;;;;;;5065130;28;20460;-62
2023/04/22 00:20:20;;;;;;;17.55;12.65;;;10.50;1.00;;;;;;5070400;28;20224;-61
2023/04/22 00:22:46;;;;;;;17.67;12.88;;;10.50;1.00;;;;;;5065594;28;20040;-62
2023/04/22 00:25:12;;;;;;;18.27;13.15;;;10.60;1.00;;;;;;5068771;28;20032;-61
2023/04/22 00:27:37;;;;;;;18.80;13.88;;;10.70;1.00;;;;;;5067438;28;20028;-62
2023/04/22 00:30:04;;;;;;;19.58;12.82;;;10.70;1.00;;;;;;5064719;28;20536;-62
2023/04/22 00:32:30;;;;;;;18.98;13.63;;;10.90;1.00;;;;;;5065547;28;20040;-62
2023/04/22 00:34:56;;;;;;;19.73;13.95;;;11.50;1.00;;;;;;5064405;28;20041;-62
2023/04/22 00:37:23;;;;;;;18.05;14.35;;;11.10;42.80;;;;;;5064454;28;20079;-61
2023/04/22 00:39:48;;;;;;;22.08;15.98;;;10.90;57.00;;;;;;5059463;28;20094;-62
2023/04/22 00:42:15;;;;;;;21.65;15.07;;;10.50;83.60;;;;;;5061901;28;20032;-62
2023/04/22 00:44:41;;;;;;;22.08;15.85;;;10.10;73.70;;;;;;5059788;28;20045;-62
2023/04/22 00:47:08;;;;;;;19.08;13.80;;;9.70;99.90;;;;;;5069846;28;20520;-62
2023/04/22 00:49:35;;;;;;;18.08;13.63;;;10.30;99.90;;;;;;5068065;28;20041;-62
2023/04/22 00:52:01;;;;;;;17.48;12.63;;;10.00;99.90;;;;;;5068090;28;20052;-62
2023/04/22 00:54:27;;;;;;;18.67;13.75;;;11.10;99.90;;;;;;5066662;28;20045;-62
2023/04/22 00:56:55;;;;;;;19.38;13.63;;;9.80;99.90;;;;;;5069092;28;20040;-62
2023/04/22 00:59:22;;;;;;;21.70;14.35;;;10.10;99.90;;;;;;5063675;28;20028;-62
2023/04/22 01:01:48;;;;;;;17.90;12.60;;;9.40;99.90;;;;;;5059793;28;20041;-62
2023/04/22 01:04:14;;;;;;;15.68;11.80;;;9.80;99.90;;;;;;5066125;28;20051;-62
2023/04/22 01:06:42;;;;;;;18.27;12.60;;;9.90;99.90;;;;;;5065823;28;20078;-62
2023/04/22 01:09:07;;;;;;;23.67;14.50;;;10.10;99.90;;;;;;5069147;28;20046;-62
2023/04/22 01:11:35;;;;;;;19.23;12.30;;;9.00;99.90;;;;;;5064219;28;20033;-62
2023/04/22 01:14:02;;;;;;;17.65;12.20;;;9.70;99.90;;;;;;5067508;28;20454;-62
2023/04/22 01:16:29;;;;;;;14.95;10.50;;;9.10;99.90;;;;;;5067610;28;20036;-61
2023/04/22 01:18:55;;;;;;;16.75;12.25;;;9.60;99.90;;;;;;5069073;28;20037;-61
2023/04/22 01:21:23;;;;;;;15.90;11.32;;;;;;;;;;5061834;28;20119;-61
2023/04/22 01:23:48;;;;;;;21.98;14.02;;;9.30;99.90;;;;;;5065548;28;20040;-61
2023/04/22 01:26:14;;;;;;;18.48;12.60;;;9.10;99.90;;;;;;5067180;28;20127;-61
2023/04/22 01:28:40;;;;;;;16.70;12.35;;;9.20;99.90;;;;;;5065201;28;20036;-61
2023/04/22 01:31:05;;;;;;;16.20;11.65;;;8.80;1.00;;;;;;5065394;28;20056;-61
2023/04/22 01:33:32;;;;;;;20.05;13.50;;;8.40;99.90;;;;;;5066003;28;20037;-61
2023/04/22 01:35:59;;;;;;;19.33;12.57;;;8.60;1.00;;;;;;5067924;28;20457;-61
2023/04/22 01:38:24;;;;;;;20.17;13.57;;;8.70;1.00;;;;;;5064077;28;20041;-61
2023/04/22 01:40:50;;;;;;;21.75;14.43;;;8.00;1.00;;;;;;5067993;28;20048;-61
2023/04/22 01:43:16;;;;;;;18.92;12.55;;;8.20;1.00;;;;;;5063478;28;20040;-61
2023/04/22 01:45:41;;;;;;;19.73;13.57;;;8.70;1.00;;;;;;5067509;28;20127;-61
2023/04/22 01:48:07;;;;;;;20.90;13.52;;;7.90;1.00;;;;;;5069859;28;20028;-61
2023/04/22 01:50:32;;;;;;;22.77;13.63;;;8.10;1.00;;;;;;5065612;28;20041;-61
2023/04/22 01:52:59;;;;;;;18.45;12.27;;;8.40;1.00;;;;;;5068246;28;20114;-61
2023/04/22 01:55:24;;;;;;;19.20;13.00;;;8.70;1.00;;;;;;5056342;28;20398;-61
2023/04/22 01:57:51;;;;;;;19.85;14.45;;;8.50;25.40;;;;;;5068081;28;20044;-61
2023/04/22 02:00:17;;;;;;;16.20;11.18;;;8.10;37.50;;;;;;5068882;28;20033;-61
2023/04/22 02:02:43;;;;;;;20.55;13.50;;;8.70;52.60;;;;;;5068366;28;20094;-61
2023/04/22 02:05:09;;;;;;;16.83;12.70;;;8.70;62.30;;;;;;5066336;28;20412;-61
2023/04/22 02:07:35;;;;;;;22.88;14.38;;;9.10;73.80;;;;;;5061018;28;20029;-61
2023/04/22 02:10:03;;;;;;;20.58;12.75;;;8.30;90.70;;;;;;5067595;28;20040;-61
2023/04/22 02:12:30;;;;;;;15.57;10.85;;;8.00;99.90;;;;;;5067031;28;20808;-62
2023/04/22 02:14:55;;;;;;;20.27;12.95;;;7.70;99.90;;;;;;5066351;28;20036;-62
2023/04/22 02:17:21;;;;;;;16.67;11.85;;;8.30;99.90;;;;;;5064305;28;20040;-60
2023/04/22 02:19:47;;;;;;;28.40;17.15;;;8.40;99.90;;;;;;5067112;28;20105;-61
2023/04/22 02:22:12;;;;;;;23.75;15.50;;;7.80;99.90;;;;;;5063893;28;20033;-61
2023/04/22 02:24:38;;;;;;;23.20;14.57;;;7.90;99.90;;;;;;5066581;28;20040;-61
2023/04/22 02:27:03;;;;;;;21.77;14.77;;;7.70;99.90;;;;;;5066764;28;20387;-61
2023/04/22 02:29:30;;;;;;;24.17;15.25;;;7.40;99.90;;;;;;5068498;28;20029;-62
2023/04/22 02:31:58;;;;;;;26.20;14.27;;;7.70;99.90;;;;;;5066353;28;20052;-61
2023/04/22 02:34:23;;;;;;;22.83;13.70;;;7.50;99.90;;;;;;5069795;28;20041;-61
2023/04/22 02:36:49;;;;;;;19.75;13.20;;;7.60;99.90;;;;;;5071825;28;20043;-61
2023/04/22 02:39:15;;;;;;;18.70;13.07;;;7.40;99.90;;;;;;5071820;28;20035;-61
2023/04/22 02:41:40;;;;;;;27.08;15.65;;;7.60;99.90;;;;;;5070692;28;20559;-61
2023/04/22 02:44:06;;;;;;;21.90;15.18;;;7.40;99.90;;;;;;5060307;28;20066;-62
2023/04/22 02:46:32;;;;;;;22.10;13.90;;;7.40;99.90;;;;;;5053678;28;20040;-61
2023/04/22 02:48:57;;;;;;;21.20;13.77;;;7.70;99.90;;;;;;5070275;28;20390;-61
2023/04/22 02:51:23;;;;;;;21.15;13.25;;;7.60;99.90;;;;;;5071634;28;20109;-61
2023/04/22 02:53:48;;;;;;;24.05;15.60;;;7.10;99.90;;;;;;5069725;28;20067;-60
2023/04/22 02:56:14;;;;;;;25.00;12.77;;;7.20;99.90;;;;;;5070162;28;20089;-60
2023/04/22 02:58:40;;;;;;;50.42;17.08;;;7.20;99.90;;;;;;5071687;28;20063;-60
2023/04/22 03:01:05;;;;;;;105.60;20.13;;;7.50;99.90;;;;;;5071396;28;20037;-61
2023/04/22 03:03:31;;;;;;;52.40;16.98;;;7.20;99.90;;;;;;5068802;28;20258;-61
2023/04/22 03:05:56;;;;;;;113.00;22.58;;;7.10;99.90;;;;;;5069024;28;20036;-60
2023/04/22 03:08:22;;;;;;;63.95;17.08;;;6.90;99.90;;;;;;5071296;28;20037;-60
2023/04/22 03:10:48;;;;;;;102.28;19.73;;;;;;;;;;5071033;28;20116;-61
2023/04/22 03:13:14;;;;;;;61.67;15.95;;;7.10;99.90;;;;;;5066042;28;20072;-61
2023/04/22 03:15:40;;;;;;;37.35;14.35;;;7.70;99.90;;;;;;5071038;28;20513;-60
2023/04/22 03:18:05;;;;;;;28.98;14.43;;;7.10;99.90;;;;;;5069073;28;20045;-60
2023/04/22 03:20:31;;;;;;;26.23;13.70;;;7.40;99.90;;;;;;5070828;28;20078;-61
2023/04/22 03:22:57;;;;;;;21.83;13.55;;;7.10;99.90;;;;;;5068615;28;20471;-60
2023/04/22 03:25:22;;;;;;;22.33;12.90;;;7.20;99.90;;;;;;5068447;28;20021;-61
2023/04/22 03:27:48;;;;;;;27.10;15.55;;;7.00;99.90;;;;;;5069710;28;20044;-60
2023/04/22 03:30:14;;;;;;;36.35;16.60;;;7.20;99.90;;;;;;5062518;28;20114;-60
2023/04/22 03:32:39;;;;;;;20.75;13.30;;;7.20;99.90;;;;;;5069465;28;20037;-59
2023/04/22 03:35:05;;;;;;;26.88;15.95;;;7.30;99.90;;;;;;5067750;28;20105;-61
2023/04/22 03:37:31;;;;;;;30.58;17.83;;;7.20;99.90;;;;;;5070757;28;20566;-62
2023/04/22 03:39:57;;;;;;;31.70;18.23;;;7.60;99.90;;;;;;5066033;28;20029;-61
2023/04/22 03:42:22;;;;;;;29.52;16.33;;;7.40;99.90;;;;;;5070817;28;20037;-61
2023/04/22 03:44:48;;;;;;;36.03;20.42;;;7.40;99.90;;;;;;5069833;28;20036;-61
2023/04/22 03:47:13;;;;;;;29.83;17.48;;;8.10;99.90;;;;;;5064696;28;20035;-61
2023/04/22 03:49:39;;;;;;;32.47;19.38;;;7.30;99.90;;;;;;5070983;28;20165;-61
2023/04/22 03:52:05;;;;;;;31.50;18.88;;;8.20;99.90;;;;;;5051109;28;20032;-61
2023/04/22 03:54:30;;;;;;;32.65;18.58;;;7.40;99.90;;;;;;5070324;28;20039;-61
2023/04/22 03:56:56;;;;;;;44.20;20.95;;;7.60;99.90;;;;;;5068469;28;20082;-61
2023/04/22 03:59:22;;;;;;;32.17;18.73;;;7.40;99.90;;;;;;5067091;28;20142;-62
2023/04/22 04:01:50;;;;;;;35.22;20.30;;;7.20;99.90;;;;;;5065280;28;20040;-61
2023/04/22 04:04:16;;;;;;;30.42;18.95;;;7.40;99.90;;;;;;5065260;28;20040;-61
2023/04/22 04:06:41;;;;;;;50.28;24.30;;;7.60;99.90;;;;;;5069841;28;20040;-60
2023/04/22 04:09:10;;;;;;;41.13;23.20;;;;;;;;;;5068284;28;20029;-62
2023/04/22 04:11:35;;;;;;;53.80;24.63;;;7.40;99.90;;;;;;5063830;28;20041;-63
2023/04/22 04:14:02;;;;;;;42.25;20.77;;;;;;;;;;5062868;28;20069;-61
2023/04/22 04:16:28;;;;;;;30.45;18.05;;;7.30;99.90;;;;;;5068475;28;20088;-62
2023/04/22 04:18:53;;;;;;;36.30;19.63;;;7.20;99.90;;;;;;5061790;28;20078;-62
2023/04/22 04:21:19;;;;;;;32.20;18.33;;;7.20;99.90;;;;;;5057492;28;20492;-62
2023/04/22 04:23:45;;;;;;;31.48;18.85;;;6.60;99.90;;;;;;5064268;28;20041;-62
2023/04/22 04:26:11;;;;;;;41.65;20.52;;;6.50;99.90;;;;;;5068778;28;20090;-62
2023/04/22 04:28:37;;;;;;;27.60;15.75;;;6.40;99.90;;;;;;5064840;28;20502;-61
2023/04/22 04:31:02;;;;;;;44.25;17.48;;;6.90;99.90;;;;;;5068685;28;20028;-62
2023/04/22 04:33:31;;;;;;;22.95;12.05;;;7.20;99.90;;;;;;5070134;28;20040;-62
2023/04/22 04:35:58;;;;;;;40.75;19.92;;;7.10;99.90;;;;;;5067793;28;20036;-61
2023/04/22 04:38:26;;;;;;;39.00;20.10;;;7.20;99.90;;;;;;5070068;28;20077;-61
2023/04/22 04:40:52;;;;;;;40.55;21.98;;;7.00;99.90;;;;;;5066437;28;20044;-61
2023/04/22 04:43:18;;;;;;;50.40;25.08;;;7.20;99.90;;;;;;5069788;28;20044;-62
2023/04/22 04:45:47;;;;;;;41.67;23.88;;;7.30;99.90;;;;;;5066673;28;20482;-62
2023/04/22 04:48:13;;;;;;;37.17;21.52;;;;;;;;;;5066379;28;20044;-61
2023/04/22 04:50:41;;;;;;;37.35;21.52;;;7.60;99.90;;;;;;5065759;28;20044;-60
2023/04/22 04:53:07;;;;;;;33.10;20.63;;;7.10;99.90;;;;;;5064851;28;20089;-61
2023/04/22 04:55:33;;;;;;;45.30;25.27;;;8.30;99.90;;;;;;5067650;28;20036;-61
2023/04/22 04:57:58;;;;;;;38.30;24.27;;;7.20;99.90;;;;;;5065227;28;20174;-61
2023/04/22 05:00:24;;;;;;;37.03;22.67;;;8.00;99.90;;;;;;5061321;28;20032;-60
2023/04/22 05:02:50;;;;;;;40.53;24.05;;;7.50;99.90;;;;;;5066094;28;20040;-61
2023/04/22 05:05:15;;;;;;;46.42;26.70;;;7.70;99.90;;;;;;5064397;28;20093;-62
2023/04/22 05:07:41;;;;;;;48.35;27.10;;;7.70;99.90;;;;;;5050875;28;20029;-61
2023/04/22 05:10:07;;;;;;;51.40;29.23;;;8.50;99.90;;;;;;5061375;28;20040;-60
2023/04/22 05:12:33;;;;;;;44.15;26.98;;;8.70;99.90;;;;;;5063984;28;20036;-61
2023/04/22 05:14:58;;;;;;;26.77;19.55;;;8.60;99.90;;;;;;5065632;28;20528;-61
2023/04/22 05:17:24;;;;;;;40.55;23.42;;;7.60;99.90;;;;;;5066345;28;20037;-61
2023/04/22 05:19:50;;;;;;;35.13;22.08;;;8.80;99.90;;;;;;5059431;28;20106;-60
2023/04/22 05:22:16;;;;;;;35.72;22.55;;;8.40;99.90;;;;;;5068698;28;20039;-61
2023/04/22 05:24:42;;;;;;;35.40;22.85;;;8.70;99.90;;;;;;5060390;28;20567;-61
2023/04/22 05:27:08;;;;;;;41.33;25.75;;;8.90;99.90;;;;;;5069165;28;20041;-60
2023/04/22 05:29:34;;;;;;;40.40;25.88;;;8.50;99.90;;;;;;5066879;28;20040;-61
2023/04/22 05:32:00;;;;;;;36.25;22.33;;;8.50;99.90;;;;;;5060962;28;20124;-61
2023/04/22 05:34:25;;;;;;;36.13;23.25;;;9.00;99.90;;;;;;5066619;28;20402;-61
2023/04/22 05:36:51;;;;;;;32.67;22.38;;;8.90;99.90;;;;;;5058031;28;20630;-60
2023/04/22 05:39:17;;;;;;;36.08;24.70;;;8.10;99.90;;;;;;5068566;28;20036;-60
2023/04/22 05:41:42;;;;;;;31.55;21.17;;;8.60;99.90;;;;;;5065416;28;20044;-61
2023/04/22 05:44:08;;;;;;;35.95;23.20;;;8.80;99.90;;;;;;5050699;28;20051;-60
2023/04/22 05:46:34;;;;;;;30.95;21.88;;;8.80;99.90;;;;;;5058786;28;20406;-61
2023/04/22 05:49:00;;;;;;;33.92;22.85;;;8.60;99.90;;;;;;5068002;28;20039;-61
2023/04/22 05:51:25;;;;;;;33.08;22.55;;;8.60;99.90;;;;;;5065671;28;20048;-60
2023/04/22 05:53:51;;;;;;;33.95;21.63;;;8.60;99.90;;;;;;5050377;28;20032;-62
2023/04/22 05:56:17;;;;;;;31.35;20.48;;;8.60;99.90;;;;;;5068011;28;20036;-61
2023/04/22 05:58:42;;;;;;;31.02;21.42;;;8.70;99.90;;;;;;5063524;28;20047;-61
2023/04/22 06:01:08;;;;;;;36.33;23.48;;;9.00;99.90;;;;;;5068277;28;20043;-60
2023/04/22 06:03:34;;;;;;;37.03;23.95;;;8.10;99.90;;;;;;5068922;28;20085;-61
2023/04/22 06:05:59;;;;;;;39.17;22.88;;;8.90;99.90;;;;;;5067001;28;20045;-61
2023/04/22 06:08:26;;;;;;;43.17;22.73;;;8.60;99.90;;;;;;5066072;28;20039;-61
2023/04/22 06:10:51;;;;;;;31.77;21.38;;;8.70;99.90;;;;;;5072615;28;20410;-61
2023/04/22 06:13:17;;;;;;;34.00;21.90;;;8.60;1.00;;;;;;5072305;28;20111;-61
2023/04/22 06:15:43;;;;;;;34.55;21.60;;;8.70;1.00;;;;;;5072576;28;20078;-61
2023/04/22 06:18:08;;;;;;;30.60;20.23;;;8.80;1.00;;;;;;5066595;28;20047;-61
2023/04/22 06:20:34;;;;;;;30.63;20.88;;;8.90;1.00;;;;;;5070297;28;20075;-62
2023/04/22 06:23:01;;;;;;;32.83;22.58;;;8.80;1.00;;;;;;5059439;28;20052;-62
2023/04/22 06:25:26;;;;;;;29.17;20.25;;;9.00;1.00;;;;;;5070673;28;20169;-62
2023/04/22 06:27:52;;;;;;;29.08;20.33;;;8.90;1.00;;;;;;5071647;28;20082;-62
2023/04/22 06:30:18;;;;;;;27.00;19.55;;;9.00;1.00;;;;;;5059026;28;20028;-61
2023/04/22 06:32:43;;;;;;;37.50;20.45;;;9.10;1.00;;;;;;5066157;28;20101;-61
2023/04/22 06:35:09;;;;;;;36.40;21.00;;;8.40;1.00;;;;;;5058785;28;20067;-61
2023/04/22 06:37:35;;;;;;;38.58;20.15;;;9.10;1.00;;;;;;5064953;28;20041;-62
2023/04/22 06:40:01;;;;;;;36.28;20.35;;;9.10;1.00;;;;;;5064544;28;20041;-61
2023/04/22 06:42:26;;;;;;;41.00;21.58;;;9.00;1.00;;;;;;5064416;28;20494;-61
2023/04/22 06:44:52;;;;;;;36.30;21.10;;;9.50;1.00;;;;;;5067087;28;20032;-61
2023/04/22 06:47:18;;;;;;;26.08;18.33;;;9.30;23.50;;;;;;5067828;28;20465;-60
2023/04/22 06:49:44;;;;;;;32.38;20.52;;;10.10;25.60;;;;;;5063492;28;20047;-60
2023/04/22 06:52:09;;;;;;;31.20;19.38;;;9.20;21.90;;;;;;5067759;28;20033;-61
2023/04/22 06:54:35;;;;;;;28.67;19.17;;;9.30;27.80;;;;;;5070293;28;20096;-61
2023/04/22 06:57:02;;;;;;;30.10;19.20;;;9.20;23.20;;;;;;5061200;28;20127;-62
2023/04/22 06:59:27;;;;;;;23.73;16.38;;;9.50;20.10;;;;;;5060766;28;20040;-61
2023/04/22 07:01:53;;;;;;;23.77;16.85;;;10.10;26.40;;;;;;5061647;28;20094;-62
2023/04/22 07:04:18;;;;;;;24.35;17.85;;;10.20;29.80;;;;;;5062658;28;20036;-61
2023/04/22 07:06:44;;;;;;;29.38;18.52;;;9.40;28.90;;;;;;5065711;28;20032;-61
2023/04/22 07:09:10;;;;;;;32.47;19.33;;;9.50;30.10;;;;;;5064341;28;20070;-61
2023/04/22 07:11:35;;;;;;;29.38;19.48;;;10.40;33.40;;;;;;5070245;28;20041;-62
2023/04/22 07:14:01;;;;;;;28.67;18.15;;;10.30;29.80;;;;;;5071647;28;20078;-61
2023/04/22 07:16:27;;;;;;;33.05;18.25;;;10.70;37.70;;;;;;5070931;28;20112;-61
2023/04/22 07:18:53;;;;;;;24.33;16.58;;;10.20;37.80;;;;;;5071483;28;20041;-61
2023/04/22 07:21:18;;;;;;;25.48;17.00;;;9.70;38.00;;;;;;5066015;28;20810;-62
2023/04/22 07:23:44;;;;;;;24.05;16.50;;;10.60;35.90;;;;;;5068243;28;20555;-61
2023/04/22 07:26:10;;;;;;;28.50;17.35;;;10.00;34.50;;;;;;5068849;28;20278;-62
2023/04/22 07:28:35;;;;;;;24.50;17.23;;;11.70;31.60;;;;;;5066425;28;20116;-62
2023/04/22 07:31:01;;;;;;;23.85;18.30;;;10.60;28.00;;;;;;5067888;28;20532;-61
2023/04/22 07:33:27;;;;;;;20.58;15.70;;;11.10;27.20;;;;;;5071430;28;20032;-61
2023/04/22 07:35:53;;;;;;;22.15;16.00;;;11.40;21.60;;;;;;5070929;28;20036;-61
2023/04/22 07:38:18;;;;;;;23.58;16.92;;;11.10;1.00;;;;;;5069568;28;20506;-60
2023/04/22 07:40:44;;;;;;;22.45;14.70;;;11.50;1.00;;;;;;5069786;28;20036;-60
2023/04/22 07:43:10;;;;;;;23.45;16.77;;;11.60;1.00;;;;;;5070600;28;20042;-62
2023/04/22 07:45:35;;;;;;;19.52;15.65;;;11.30;1.00;;;;;;5070726;28;20037;-61
2023/04/22 07:48:01;;;;;;;20.02;15.05;;;11.00;1.00;;;;;;5070694;28;20107;-61
2023/04/22 07:50:27;;;;;;;24.85;16.27;;;11.60;1.00;;;;;;5067274;28;20534;-61
2023/04/22 07:52:52;;;;;;;20.25;15.65;;;11.60;1.00;;;;;;5065747;28;20162;-62
2023/04/22 07:55:18;;;;;;;20.15;14.90;;;11.00;1.00;;;;;;5068361;28;20086;-61
2023/04/22 07:57:44;;;;;;;20.08;15.85;;;11.20;1.00;;;;;;5071082;28;20431;-60
2023/04/22 08:00:10;;;;;;;18.85;14.88;;;12.00;1.00;;;;;;5068846;28;20045;-62
2023/04/22 08:02:35;;;;;;;20.23;16.08;;;12.00;1.00;;;;;;5070602;28;20118;-61
2023/04/22 08:05:01;;;;;;;20.67;14.75;;;11.30;1.00;;;;;;5070658;28;20084;-63
2023/04/22 08:07:27;;;;;;;19.33;14.32;;;12.40;99.90;;;;;;5069147;28;20606;-61
2023/04/22 08:09:54;;;;;;;18.88;14.88;;;11.50;99.90;;;;;;5070495;28;20032;-62
2023/04/22 08:12:20;;;;;;;17.30;14.40;;;12.30;99.90;;;;;;5069673;28;20257;-61
2023/04/22 08:14:46;;;;;;;16.00;12.85;;;12.50;99.90;;;;;;5068283;28;20127;-61
2023/04/22 08:17:11;;;;;;;17.83;14.32;;;12.70;99.90;;;;;;5069811;28;20102;-61
2023/04/22 08:19:37;;;;;;;19.10;15.27;;;12.60;99.90;;;;;;5070498;28;20033;-61
2023/04/22 08:22:02;;;;;;;18.83;15.30;;;12.40;99.90;;;;;;5068848;28;20516;-61
2023/04/22 08:24:28;;;;;;;17.55;13.95;;;12.80;99.90;;;;;;5068466;28;20097;-61
2023/04/22 08:26:54;;;;;;;18.15;14.35;;;12.90;99.90;;;;;;5070392;28;20073;-61
2023/04/22 08:29:19;;;;;;;16.23;12.40;;;13.30;99.90;;;;;;5068429;28;20448;-61
2023/04/22 08:31:45;;;;;;;15.70;12.82;;;13.00;31.70;;;;;;5069523;28;20533;-61
2023/04/22 08:34:10;;;;;;;17.13;11.85;;;12.70;1.00;;;;;;5069359;28;20044;-61
2023/04/22 08:36:36;;;;;;;18.25;13.88;;;13.10;1.00;;;;;;5069809;28;20395;-60
2023/04/22 08:39:02;;;;;;;16.80;13.13;;;14.20;1.00;;;;;;5069613;28;20156;-61
2023/04/22 08:41:29;;;;;;;16.58;12.77;;;13.10;1.00;;;;;;5069083;28;20416;-61
2023/04/22 08:43:55;;;;;;;17.13;13.15;;;12.70;1.00;;;;;;5069709;28;20040;-61
2023/04/22 08:46:24;;;;;;;17.10;13.52;;;13.10;1.00;;;;;;5066899;28;20044;-61
2023/04/22 08:48:50;;;;;;;16.08;13.10;;;12.80;99.90;;;;;;5067726;28;20613;-61
2023/04/22 08:51:16;;;;;;;17.65;13.18;;;12.80;99.90;;;;;;5068713;28;20115;-61
2023/04/22 08:53:43;;;;;;;16.98;13.88;;;13.60;99.90;;;;;;5060041;28;20061;-61
2023/04/22 08:56:11;;;;;;;16.70;13.77;;;13.20;99.90;;;;;;5069017;28;20041;-61
2023/04/22 08:58:38;;;;;;;18.73;14.13;;;;;;;;;;5069660;28;20032;-61
2023/04/22 09:01:04;;;;;;;16.35;12.43;;;13.00;99.90;;;;;;5069702;28;20044;-61
2023/04/22 09:03:30;;;;;;;16.50;13.65;;;12.90;99.90;;;;;;5062109;28;20052;-61
2023/04/22 09:05:58;;;;;;;18.92;13.18;;;13.30;99.90;;;;;;5061509;28;20040;-61
2023/04/22 09:08:24;;;;;;;15.18;12.45;;;;;;;;;;5069097;28;20421;-60
2023/04/22 09:10:50;;;;;;;16.27;13.00;;;13.40;99.90;;;;;;5067827;28;20043;-61
2023/04/22 09:13:17;;;;;;;16.20;13.55;;;14.10;99.90;;;;;;5068986;28;20037;-61
2023/04/22 09:15:43;;;;;;;17.73;13.35;;;13.00;99.90;;;;;;5069110;28;20485;-60
2023/04/22 09:18:09;;;;;;;16.73;13.35;;;13.10;99.90;;;;;;5068712;28;20036;-60
2023/04/22 09:20:34;;;;;;;15.88;13.05;;;13.70;99.90;;;;;;5055333;28;20100;-60
2023/04/22 09:23:04;;;;;;;17.55;13.65;;;14.40;97.20;;;;;;5069352;28;20528;-61
2023/04/22 09:25:33;;;;;;;17.20;13.73;;;14.20;50.40;;;;;;5067704;28;20028;-61
2023/04/22 09:27:59;;;;;;;20.00;15.18;;;13.60;1.00;;;;;;5067491;28;20636;-61
2023/04/22 09:30:30;;;;;;;19.75;13.60;;;14.30;1.00;;;;;;5059114;28;20486;-61
2023/04/22 09:32:58;;;;;;;17.70;14.65;;;14.70;1.00;;;;;;5069088;28;20036;-61
2023/04/22 09:35:31;;;;;;;18.35;14.70;;;14.40;99.90;;;;;;5058096;28;20039;-61
2023/04/22 09:37:58;;;;;;;18.98;15.40;;;14.50;99.90;;;;;;5066790;28;20501;-60
2023/04/22 09:40:25;;;;;;;18.33;15.00;;;14.70;99.90;;;;;;5069146;28;20048;-61
2023/04/22 09:42:53;;;;;;;18.83;14.98;;;13.70;99.90;;;;;;5039520;28;20510;-64
2023/04/22 09:45:31;;;;;;;16.48;12.98;;;13.00;99.90;;;;;;5069734;28;20040;-61
2023/04/22 09:48:05;;;;;;;17.25;14.43;;;14.00;99.90;;;;;;5069895;28;20040;-61
2023/04/22 09:50:30;;;;;;;17.88;14.85;;;14.50;99.90;;;;;;5068658;28;20049;-59
2023/04/22 09:53:07;;;;;;;17.88;14.88;;;15.30;99.90;;;;;;5066716;28;20055;-60
2023/04/22 09:55:39;;;;;;;17.65;14.20;;;14.50;99.90;;;;;;5068021;28;20029;-60
2023/04/22 09:58:18;;;;;;;17.85;14.50;;;14.20;99.90;;;;;;5068391;28;20119;-60
2023/04/22 10:00:48;;;;;;;19.40;14.00;;;14.80;99.90;;;;;;5063395;28;20044;-61
2023/04/22 10:03:14;;;;;;;18.42;13.18;;;15.30;99.90;;;;;;5071874;28;20455;-61
2023/04/22 10:05:40;;;;;;;17.20;13.95;;;14.70;99.90;;;;;;5070006;28;20402;-61
2023/04/22 10:08:09;;;;;;;20.10;15.13;;;14.70;99.90;;;;;;5071972;28;20040;-60
2023/04/22 10:10:35;;;;;;;19.58;15.23;;;14.80;99.90;;;;;;5071650;28;20036;-61
2023/04/22 10:13:03;;;;;;;16.63;13.32;;;14.90;99.90;;;;;;5072967;28;20509;-60
2023/04/22 10:15:50;;;;;;;17.63;14.05;;;14.90;99.90;;;;;;5071978;28;20393;-61
2023/04/22 10:18:21;;;;;;;16.67;13.30;;;14.60;1.00;;;;;;5071949;28;20032;-60
2023/04/22 10:20:47;;;;;;;17.42;14.18;;;15.30;99.90;;;;;;5069363;28;20075;-60
2023/04/22 10:23:21;;;;;;;17.70;12.77;;;14.70;1.00;;;;;;5068020;28;20037;-61
2023/04/22 10:25:48;;;;;;;15.18;11.60;;;15.00;1.00;;;;;;5071897;28;20041;-61
2023/04/22 10:28:15;;;;;;;16.00;11.75;;;14.90;99.90;;;;;;5070543;28;20033;-59
2023/04/22 10:30:41;;;;;;;16.17;12.90;;;14.70;99.90;;;;;;5072153;28;20115;-61
2023/04/22 10:33:30;;;;;;;16.73;12.55;;;15.20;99.90;;;;;;5071843;28;20120;-61
2023/04/22 10:36:10;;;;;;;16.58;12.57;;;15.80;99.90;;;;;;5066116;28;20040;-61
2023/04/22 10:38:37;;;;;;;17.33;12.27;;;16.10;99.90;;;;;;5072135;28;20039;-61
2023/04/22 10:41:04;;;;;;;16.10;12.25;;;16.20;1.00;;;;;;5071516;28;20135;-61
2023/04/22 10:43:47;;;;;;;14.65;11.43;;;15.60;1.00;;;;;;5068474;28;20040;-61
2023/04/22 10:46:36;;;;;;;17.52;13.95;;;16.20;1.00;;;;;;5068031;28;20040;-61
2023/04/22 10:49:12;;;;;;;18.45;14.55;;;15.70;99.90;;;;;;5061828;28;20040;-61
2023/04/22 10:51:42;;;;;;;16.73;13.43;;;16.10;99.90;;;;;;5066878;28;20043;-61
2023/04/22 10:54:26;;;;;;;16.10;12.95;;;15.80;99.90;;;;;;5054584;28;20033;-59
2023/04/22 10:57:13;;;;;;;16.00;13.00;;;16.20;99.90;;;;;;5066638;28;20049;-61
2023/04/22 10:59:51;;;;;;;16.30;12.55;;;15.70;1.00;;;;;;5056642;28;20032;-60
2023/04/22 11:02:18;;;;;;;16.15;12.73;;;16.80;1.00;;;;;;5056057;28;20443;-59
2023/04/22 11:04:44;;;;;;;17.73;11.88;;;16.60;99.90;;;;;;5060813;28;20037;-61
2023/04/22 11:07:25;;;;;;;17.95;12.45;;;16.70;99.90;;;;;;5053284;28;20172;-60
2023/04/22 11:10:04;;;;;;;17.13;12.57;;;17.10;99.90;;;;;;5062372;28;20277;-61
2023/04/22 11:12:38;;;;;;;15.15;10.77;;;17.50;99.90;;;;;;5058897;28;20040;-61
2023/04/22 11:15:21;;;;;;;14.50;11.25;;;18.30;1.00;;;;;;5056671;28;20043;-61
2023/04/22 11:17:51;;;;;;;13.55;10.77;;;17.80;1.00;;;;;;5059564;28;20060;-61
2023/04/22 11:20:17;;;;;;;13.50;10.80;;;19.00;99.90;;;;;;5054231;28;20398;-60
2023/04/22 11:22:50;;;;;;;13.55;10.93;;;18.20;99.90;;;;;;5061542;28;20043;-60
2023/04/22 11:25:16;;;;;;;15.25;11.93;;;19.10;99.90;;;;;;5061232;28;20067;-61
2023/04/22 11:27:43;;;;;;;15.73;12.18;;;19.70;99.90;;;;;;5066476;28;20138;-60
2023/04/22 11:30:20;;;;;;;13.65;12.10;;;18.60;99.90;;;;;;5059144;28;20041;-60
2023/04/22 11:32:48;;;;;;;16.08;11.07;;;19.00;99.90;;;;;;5060418;28;20048;-61
2023/04/22 11:35:17;;;;;;;15.25;11.57;;;19.50;99.90;;;;;;5045400;28;20049;-60
2023/04/22 11:37:50;;;;;;;15.27;10.80;;;19.20;99.90;;;;;;5062463;28;20036;-60
2023/04/22 11:40:18;;;;;;;13.15;11.10;;;19.50;99.90;;;;;;5070410;28;20035;-61
2023/04/22 11:42:44;;;;;;;13.65;10.80;;;19.40;99.90;;;;;;5059386;28;20049;-61
2023/04/22 11:45:12;;;;;;;13.15;10.15;;;19.50;99.90;;;;;;5067204;28;20047;-61
2023/04/22 11:47:39;;;;;;;17.75;11.40;;;19.30;99.90;;;;;;5067267;28;20040;-61
2023/04/22 11:50:08;;;;;;;13.98;11.13;;;20.10;99.90;;;;;;5062166;28;20340;-61
2023/04/22 11:52:43;;;;;;;15.30;12.80;;;20.30;99.90;;;;;;5065400;28;20037;-59
2023/04/22 11:55:18;;;;;;;12.85;10.07;;;20.10;99.90;;;;;;5064844;28;20044;-59
2023/04/22 11:57:50;;;;;;;14.00;10.77;;;21.10;99.90;;;;;;5068213;28;20051;-60
2023/04/22 12:00:16;;;;;;;12.68;10.52;;;20.50;99.90;;;;;;5061268;28;20044;-60
2023/04/22 12:02:44;;;;;;;13.63;10.80;;;20.40;99.90;;;;;;5065345;28;20059;-59
2023/04/22 12:05:11;;;;;;;14.18;10.68;;;20.10;99.90;;;;;;5068404;28;20036;-60
2023/04/22 12:07:37;;;;;;;13.52;10.38;;;20.20;99.90;;;;;;5061974;28;20489;-60
2023/04/22 12:10:06;;;;;;;14.27;11.15;;;20.40;99.90;;;;;;5060551;28;20119;-60
2023/04/22 12:12:34;;;;;;;13.23;10.65;;;19.70;99.90;;;;;;5066460;28;20058;-60
2023/04/22 12:15:07;;;;;;;13.80;10.70;;;20.30;99.90;;;;;;5061055;28;20028;-59
2023/04/22 12:17:33;;;;;;;12.88;9.90;;;20.10;99.90;;;;;;5062763;28;20456;-60
2023/04/22 12:19:58;;;;;;;12.30;9.95;;;20.40;99.90;;;;;;5062721;28;20029;-60
2023/04/22 12:22:25;;;;;;;13.55;10.23;;;20.30;99.90;;;;;;5066330;28;20128;-59
2023/04/22 12:24:51;;;;;;;15.18;11.30;;;21.50;99.90;;;;;;5061186;28;20477;-59
2023/04/22 12:27:18;;;;;;;13.48;9.70;;;20.50;99.90;;;;;;5052702;28;20068;-59
2023/04/22 12:29:55;;;;;;;12.75;10.43;;;20.50;99.90;;;;;;5069715;28;20032;-60
2023/04/22 12:32:25;;;;;;;12.75;9.50;;;21.60;99.90;;;;;;5057067;28;20502;-60
2023/04/22 12:34:51;;;;;;;12.50;10.43;;;20.60;99.90;;;;;;5067518;28;20390;-60